Almirante Gago Coutinho — CTHA — position and weather

sailwx.info

Track history (hours):
 
Tides and Currents Weather Stations Pressure Air Temp Water Temp Dewpoint Dewpoint Depression Visibility Wind Speed Wind Dir Waves Ship Positions

Oceanographic research ship Almirante Gago Coutinho (Portugal)

Detailed information on ship capabilities available from University of Delaware's Ocean Information Center.

Last reported at 2018-May-22 16:02 UTC. Time now 2018-May-23 05:18 UTC.
Position N 39°41' W 031°13'.

Length 17 m; draft 5.9 m.

MMSI: 263145000.

Date/timePositionNaut miles runAvg speedWind from/ knotsBaromVisibWave heightAir tempDewpointWater temp
2018-May-22 16:02N 39°41' W 031°13'0 8.5
2018-May-22 16:01N 39°41' W 031°13'6 8.2
2018-May-22 15:20N 39°36' W 031°17'3 8.1
2018-May-22 15:00N 39°34' W 031°19'4 8.4
2018-May-22 14:30N 39°29' W 031°19'4 8.1
2018-May-22 14:00N 39°25' W 031°19'4 8.1
2018-May-22 13:30N 39°22' W 031°18'0 0.5
2018-May-22 12:59N 39°21' W 031°18'1 3.0
2018-May-22 12:30N 39°20' W 031°18'5 5.6
2018-May-22 11:32N 39°18' W 031°11'0 6.9
2018-May-22 11:30N 39°18' W 031°11'7 2.6
2018-May-22 08:49N 39°24' W 031°06'2 6.8
2018-May-22 08:30N 39°26' W 031°04'13 1.4
2018-May-21 23:01N 39°39' W 031°05'4 7.5
2018-May-21 22:26N 39°42' W 031°09'5 2.1
2018-May-21 20:11N 39°37' W 031°09'1 8.0
2018-May-21 20:00N 39°36' W 031°11'4 8.3
2018-May-21 19:31N 39°34' W 031°15'6 7.5
2018-May-21 18:45N 39°29' W 031°20'2 6.8
2018-May-21 18:30N 39°28' W 031°19'3 5.5
2018-May-21 18:01N 39°25' W 031°19'2 4.9
2018-May-21 17:30N 39°25' W 031°22'1 2.2
2018-May-21 17:00N 39°24' W 031°22'4 8.0
2018-May-21 16:30N 39°22' W 031°17'3 0.1
2018-May-20 12:45N 39°20' W 031°16'16 5.1
2018-May-20 09:34N 39°34' W 031°06'0 8.2
2018-May-20 09:30N 39°35' W 031°06'11 0.3
2018-May-18 23:35N 39°24' W 031°00'1 7.0
2018-May-18 23:30N 39°24' W 031°00'4 7.6
2018-May-18 22:57N 39°20' W 031°00'3 6.0
2018-May-18 22:30N 39°17' W 030°59'27 6.6
2018-May-18 18:22N 39°08' W 030°26'3 7.4
2018-May-18 18:00N 39°06' W 030°23'2 4.9
2018-May-18 17:30N 39°07' W 030°26'2 4.5
2018-May-18 17:00N 39°07' W 030°29'4 4.7
2018-May-18 16:14N 39°08' W 030°34'3 4.8
2018-May-18 15:37N 39°09' W 030°37'1 4.5
2018-May-18 15:30N 39°09' W 030°38'19 4.2
2018-May-18 10:59N 39°15' W 031°02'2 4.1
2018-May-18 10:30N 39°15' W 031°04'10 3.9
2018-May-18 07:49N 39°20' W 031°16'1 2.9
2018-May-18 07:31N 39°20' W 031°17'2 3.1
2018-May-18 07:00N 39°20' W 031°19'1 2.6
2018-May-18 06:30N 39°21' W 031°19'1 1.9
2018-May-18 05:52N 39°22' W 031°19'1 1.7
2018-May-18 05:28N 39°23' W 031°19'1 1.7
2018-May-18 05:00N 39°24' W 031°19'0 0.4
2018-May-18 03:57N 39°23' W 031°19'3 5.2
2018-May-18 03:27N 39°26' W 031°19'3 7.4
2018-May-18 03:00N 39°29' W 031°19'1 0.6
2018-May-18 02:12N 39°29' W 031°19'1 7.6
2018-May-18 02:00N 39°27' W 031°19'4 7.4
2018-May-18 01:30N 39°23' W 031°19'4 7.0
2018-May-18 00:59N 39°20' W 031°18'4 6.9
2018-May-18 00:25N 39°16' W 031°16'2 5.2
2018-May-18 00:00N 39°17' W 031°19'3 6.9
2018-May-17 23:30N 39°21' W 031°19'4 7.4
2018-May-17 23:00N 39°24' W 031°20'4 7.0
2018-May-17 22:30N 39°28' W 031°20'6 6.4
2018-May-17 21:38N 39°33' W 031°19'1 6.7
2018-May-17 21:30N 39°34' W 031°19'3 6.6
2018-May-17 21:00N 39°36' W 031°15'4 6.7
2018-May-17 20:25N 39°38' W 031°11'3 6.1
2018-May-17 20:00N 39°41' W 031°11'3 3.1
2018-May-17 19:11N 39°40' W 031°08'2 7.1
2018-May-17 18:57N 39°42' W 031°09'2 1.2
2018-May-17 17:23N 39°40' W 031°08'3 7.0
2018-May-17 17:00N 39°43' W 031°09'1 0.8
2018-May-17 15:17N 39°41' W 031°09'2 7.5
2018-May-17 15:00N 39°43' W 031°09'3 2.2
2018-May-17 13:30N 39°40' W 031°08'3 6.9
2018-May-17 13:00N 39°43' W 031°09'4 4.1
2018-May-17 11:55N 39°41' W 031°04'3 6.5
2018-May-17 11:26N 39°40' W 031°08'2 3.0
2018-May-17 10:40N 39°40' W 031°05'1 7.2
2018-May-17 10:30N 39°41' W 031°04'4 2.5
2018-May-17 08:50N 39°40' W 031°10'2 5.3
2018-May-17 08:30N 39°41' W 031°11'5 3.0
2018-May-17 06:57N 39°45' W 031°08'8 6.6
2018-May-17 05:49N 39°38' W 031°10'5 7.1
2018-May-17 05:05N 39°34' W 031°05'0 5.7
2018-May-17 05:00N 39°34' W 031°05'2 3.5
2018-May-17 04:20N 39°32' W 031°06'2 2.0
2018-May-17 03:13N 39°33' W 031°09'2 5.8
2018-May-17 02:56N 39°32' W 031°08'1 1.2
2018-May-17 02:05N 39°31' W 031°07'1 8.3
2018-May-17 02:00N 39°32' W 031°08'1 2.0
2018-May-17 01:29N 39°32' W 031°09'1 0.7
2018-May-17 00:04N 39°33' W 031°09'1 8.4
2018-May-17 00:00N 39°33' W 031°10'5 5.7
2018-May-16 23:05N 39°29' W 031°07'1 6.1
2018-May-16 22:54N 39°30' W 031°07'4 6.9
2018-May-16 22:18N 39°33' W 031°11'1 1.6
2018-May-16 21:59N 39°33' W 031°11'1 1.6
2018-May-16 21:25N 39°33' W 031°12'1 2.2
2018-May-16 20:59N 39°33' W 031°13'1 0.6
2018-May-16 20:08N 39°32' W 031°14'1 3.1
2018-May-16 19:42N 39°33' W 031°12'1 6.2
2018-May-16 19:28N 39°32' W 031°14'2 1.6
2018-May-16 18:21N 39°34' W 031°13'3 7.1
2018-May-16 18:00N 39°32' W 031°11'1 2.1
2018-May-16 17:23N 39°33' W 031°12'1 3.1
2018-May-16 17:00N 39°32' W 031°11'1 1.9
2018-May-16 16:21N 39°33' W 031°12'3 5.1
2018-May-16 15:51N 39°31' W 031°10'2 0.7
2018-May-16 13:37N 39°32' W 031°11'1 2.1
2018-May-16 13:06N 39°31' W 031°10'3 5.4
2018-May-16 12:30N 39°29' W 031°08'3 5.9
2018-May-16 11:57N 39°32' W 031°10'3 2.4
2018-May-16 10:47N 39°29' W 031°08'3 7.0
2018-May-16 10:24N 39°32' W 031°09'3 3.0
2018-May-16 09:21N 39°29' W 031°07'5 5.9
2018-May-16 08:26N 39°33' W 031°12'2 3.4
2018-May-16 07:53N 39°33' W 031°09'1 1.2
2018-May-16 07:21N 39°33' W 031°09'2 6.6
2018-May-16 06:59N 39°33' W 031°12'2 3.0
2018-May-16 06:27N 39°33' W 031°10'1 1.8
2018-May-16 05:59N 39°34' W 031°09'3 5.5
2018-May-16 05:30N 39°35' W 031°12'1 1.2
2018-May-16 05:00N 39°35' W 031°13'1 2.4
2018-May-16 04:30N 39°35' W 031°11'2 4.8
2018-May-16 04:00N 39°34' W 031°14'3 5.4
2018-May-16 03:26N 39°35' W 031°10'2 4.8
2018-May-16 02:55N 39°36' W 031°13'2 5.1
2018-May-16 02:30N 39°35' W 031°16'4 7.0
2018-May-16 02:00N 39°36' W 031°11'4 7.0
2018-May-16 01:26N 39°34' W 031°07'3 2.4
2018-May-16 00:20N 39°31' W 031°06'2 7.2
2018-May-16 00:00N 39°34' W 031°07'4 7.4
2018-May-15 23:30N 39°36' W 031°10'3 6.6
2018-May-15 23:01N 39°36' W 031°14'4 7.4
2018-May-15 22:30N 39°34' W 031°18'2 1.9
2018-May-15 21:42N 39°32' W 031°17'2 5.9
2018-May-15 21:21N 39°34' W 031°15'2 2.1
2018-May-15 20:31N 39°33' W 031°17'0 7.2
2018-May-15 20:30N 39°33' W 031°17'2 3.2
2018-May-15 19:58N 39°33' W 031°14'1 0.4
2018-May-15 17:05N 39°32' W 031°14'1 6.9
2018-May-15 17:00N 39°33' W 031°13'3 6.4
2018-May-15 16:29N 39°34' W 031°09'2 4.6
2018-May-15 16:00N 39°34' W 031°12'9 6.7
2018-May-15 14:40N 39°26' W 031°17'2 7.3
2018-May-15 14:24N 39°24' W 031°16'1 3.4
2018-May-15 14:00N 39°25' W 031°17'2 3.9
2018-May-15 13:31N 39°23' W 031°16'1 1.3
2018-May-15 13:01N 39°24' W 031°17'2 2.3
2018-May-15 12:11N 39°22' W 031°16'1 6.8
2018-May-15 12:00N 39°23' W 031°17'0 0.5
2018-May-15 11:30N 39°23' W 031°17'3 1.6
2018-May-15 09:41N 39°26' W 031°17'1 7.8
2018-May-15 09:30N 39°25' W 031°17'5 6.1
2018-May-15 08:43N 39°20' W 031°16'1 4.3
2018-May-15 08:23N 39°21' W 031°17'2 6.2
2018-May-15 08:00N 39°23' W 031°18'3 5.1
2018-May-15 07:30N 39°26' W 031°18'7 6.8
2018-May-15 06:25N 39°33' W 031°18'3 6.7
2018-May-15 05:55N 39°34' W 031°14'3 7.1
2018-May-15 05:30N 39°35' W 031°10'2 4.3
2018-May-15 05:00N 39°34' W 031°13'4 7.2
2018-May-15 04:30N 39°33' W 031°17'6 7.0
2018-May-15 03:38N 39°27' W 031°18'1 7.3
2018-May-15 03:30N 39°26' W 031°18'4 7.3
2018-May-15 03:00N 39°23' W 031°18'3 6.4
2018-May-15 02:30N 39°20' W 031°16'4 7.1
2018-May-15 02:00N 39°23' W 031°18'10 6.2
2018-May-15 00:24N 39°33' W 031°17'3 6.7
2018-May-14 23:57N 39°34' W 031°13'3 6.8
2018-May-14 23:30N 39°34' W 031°09'1 2.1
2018-May-14 23:00N 39°34' W 031°08'4 7.7
2018-May-14 22:30N 39°33' W 031°13'8 7.0
2018-May-14 21:22N 39°26' W 031°17'3 7.3
2018-May-14 20:59N 39°23' W 031°17'2 2.4
2018-May-14 20:06N 39°21' W 031°16'1 7.3
2018-May-14 20:00N 39°22' W 031°16'3 7.0
2018-May-14 19:30N 39°25' W 031°17'8 6.9
2018-May-14 18:25N 39°33' W 031°14'2 3.7
2018-May-14 17:54N 39°34' W 031°12'9 6.6
2018-May-14 16:36N 39°26' W 031°17'1 7.7
2018-May-14 16:30N 39°26' W 031°18'4 7.5
2018-May-14 16:00N 39°22' W 031°17'1 1.7
2018-May-14 15:30N 39°21' W 031°16'3 6.8
2018-May-14 15:00N 39°24' W 031°18'9 6.8
2018-May-14 13:39N 39°33' W 031°15'1 7.0
2018-May-14 13:30N 39°34' W 031°14'3 6.4
2018-May-14 12:59N 39°34' W 031°09'3 7.2
2018-May-14 12:30N 39°34' W 031°05'37 7.1
2018-May-14 07:19N 39°21' W 030°20'5 8.0
2018-May-14 06:41N 39°18' W 030°15'1 7.9
2018-May-14 06:29N 39°17' W 030°13'4 8.0
2018-May-14 06:00N 39°16' W 030°08'4 8.1
2018-May-14 05:30N 39°14' W 030°03'4 7.8
2018-May-14 05:00N 39°13' W 029°59'4 7.9
2018-May-14 04:30N 39°11' W 029°55'4 7.5
2018-May-14 04:00N 39°10' W 029°50'4 7.4
2018-May-14 03:30N 39°07' W 029°47'4 7.3
2018-May-14 03:00N 39°04' W 029°44'4 7.1
2018-May-14 02:30N 39°01' W 029°43'3 6.5
2018-May-14 02:00N 38°59' W 029°46'3 6.2
2018-May-14 01:30N 38°56' W 029°48'3 7.0
2018-May-14 01:00N 38°53' W 029°49'4 7.2
2018-May-14 00:31N 38°49' W 029°49'3 5.9
2018-May-14 00:00N 38°47' W 029°51'4 7.1
2018-May-13 23:30N 38°50' W 029°51'3 6.9
2018-May-13 23:00N 38°54' W 029°50'3 7.0
2018-May-13 22:31N 38°57' W 029°50'3 6.6
2018-May-13 22:01N 38°60' W 029°47'3 6.7
2018-May-13 21:30N 39°02' W 029°44'3 5.7
2018-May-13 21:00N 39°04' W 029°42'1 2.6
2018-May-13 20:30N 39°06' W 029°43'2 3.7
2018-May-13 20:01N 39°04' W 029°45'4 7.4
2018-May-13 19:30N 39°01' W 029°48'4 7.3
2018-May-13 19:00N 38°59' W 029°51'4 7.3
2018-May-13 18:30N 38°55' W 029°52'4 7.3
2018-May-13 18:00N 38°52' W 029°53'4 7.2
2018-May-13 17:30N 38°48' W 029°53'2 4.0
2018-May-13 17:00N 38°48' W 029°56'4 7.1
2018-May-13 16:30N 38°52' W 029°55'4 7.1
2018-May-13 16:00N 38°55' W 029°54'3 6.7
2018-May-13 15:30N 38°59' W 029°53'3 7.0
2018-May-13 15:00N 39°01' W 029°50'4 7.1
2018-May-13 14:30N 39°04' W 029°47'2 4.4
2018-May-13 14:00N 39°06' W 029°48'3 7.0
2018-May-13 13:30N 39°03' W 029°50'3 6.8
2018-May-13 13:00N 39°01' W 029°53'3 6.9
2018-May-13 12:30N 38°58' W 029°55'4 7.2
2018-May-13 12:00N 38°55' W 029°56'4 7.0
2018-May-13 11:31N 38°51' W 029°58'2 3.2
2018-May-13 11:00N 38°51' W 029°60'4 7.0
2018-May-13 10:30N 38°54' W 029°58'4 7.1
2018-May-13 10:00N 38°57' W 029°57'4 7.1
2018-May-13 09:30N 39°00' W 029°55'4 7.2
2018-May-13 09:00N 39°03' W 029°52'4 7.3
2018-May-13 08:30N 39°07' W 029°50'2 3.7
2018-May-13 08:01N 39°08' W 029°52'2 4.3
2018-May-13 07:30N 39°09' W 029°54'3 6.6
2018-May-13 07:00N 39°06' W 029°56'4 7.6
2018-May-13 06:31N 39°02' W 029°58'4 7.4
2018-May-13 06:00N 38°59' W 030°00'4 7.2
2018-May-13 05:30N 38°56' W 030°02'4 7.3
2018-May-13 05:01N 38°52' W 030°04'2 4.2
2018-May-13 04:30N 38°53' W 030°01'4 7.5
2018-May-13 04:00N 38°57' W 029°60'4 7.2
2018-May-13 03:30N 38°60' W 029°58'3 6.9
2018-May-13 03:01N 39°03' W 029°56'3 6.9
2018-May-13 02:30N 39°06' W 029°54'2 4.8
2018-May-13 02:00N 39°08' W 029°52'4 7.4
2018-May-13 01:30N 39°04' W 029°54'4 7.6
2018-May-13 01:00N 39°01' W 029°56'4 7.5
2018-May-13 00:30N 38°57' W 029°58'5 7.6
2018-May-12 23:54N 38°53' W 030°00'3 7.7
2018-May-12 23:30N 38°50' W 030°01'4 7.4
2018-May-12 23:00N 38°47' W 030°02'4 7.1
2018-May-12 22:30N 38°44' W 030°04'4 7.3
2018-May-12 22:00N 38°40' W 030°06'1 2.2
2018-May-12 21:30N 38°39' W 030°06'3 5.2
2018-May-12 21:00N 38°41' W 030°08'1 2.4
2018-May-12 20:31N 38°40' W 030°07'4 7.0
2018-May-12 20:00N 38°39' W 030°03'1 2.8
2018-May-12 19:30N 38°38' W 030°02'2 4.9
2018-May-12 19:01N 38°38' W 030°05'3 6.9
2018-May-12 18:30N 38°40' W 030°09'2 4.6
2018-May-12 18:00N 38°39' W 030°12'4 7.2
2018-May-12 17:30N 38°38' W 030°08'4 7.1
2018-May-12 17:00N 38°36' W 030°03'4 7.3
2018-May-12 16:30N 38°35' W 029°59'  
Track history (hours):
 
Tides and Currents Weather Stations Pressure Air Temp Water Temp Dewpoint Dewpoint Depression Visibility Wind Speed Wind Dir Waves Ship Positions

Oceanographic research ship Almirante Gago Coutinho (Portugal)

Detailed information on ship capabilities available from University of Delaware's Ocean Information Center.

Last reported at 2018-May-22 16:02 UTC. Time now 2018-May-23 05:18 UTC.
Position N 39°41' W 031°13'.

Length 17 m; draft 5.9 m.

MMSI: 263145000.

Date/timePositionNaut miles runAvg speedWind from/ knotsBaromVisibWave heightAir tempDewpointWater temp
2018-May-22 16:02N 39°41' W 031°13'0 8.5
2018-May-22 16:01N 39°41' W 031°13'6 8.2
2018-May-22 15:20N 39°36' W 031°17'3 8.1
2018-May-22 15:00N 39°34' W 031°19'4 8.4
2018-May-22 14:30N 39°29' W 031°19'4 8.1
2018-May-22 14:00N 39°25' W 031°19'4 8.1
2018-May-22 13:30N 39°22' W 031°18'0 0.5
2018-May-22 12:59N 39°21' W 031°18'1 3.0
2018-May-22 12:30N 39°20' W 031°18'5 5.6
2018-May-22 11:32N 39°18' W 031°11'0 6.9
2018-May-22 11:30N 39°18' W 031°11'7 2.6
2018-May-22 08:49N 39°24' W 031°06'2 6.8
2018-May-22 08:30N 39°26' W 031°04'13 1.4
2018-May-21 23:01N 39°39' W 031°05'4 7.5
2018-May-21 22:26N 39°42' W 031°09'5 2.1
2018-May-21 20:11N 39°37' W 031°09'1 8.0
2018-May-21 20:00N 39°36' W 031°11'4 8.3
2018-May-21 19:31N 39°34' W 031°15'6 7.5
2018-May-21 18:45N 39°29' W 031°20'2 6.8
2018-May-21 18:30N 39°28' W 031°19'3 5.5
2018-May-21 18:01N 39°25' W 031°19'2 4.9
2018-May-21 17:30N 39°25' W 031°22'1 2.2
2018-May-21 17:00N 39°24' W 031°22'4 8.0
2018-May-21 16:30N 39°22' W 031°17'3 0.1
2018-May-20 12:45N 39°20' W 031°16'16 5.1
2018-May-20 09:34N 39°34' W 031°06'0 8.2
2018-May-20 09:30N 39°35' W 031°06'11 0.3
2018-May-18 23:35N 39°24' W 031°00'1 7.0
2018-May-18 23:30N 39°24' W 031°00'4 7.6
2018-May-18 22:57N 39°20' W 031°00'3 6.0
2018-May-18 22:30N 39°17' W 030°59'27 6.6
2018-May-18 18:22N 39°08' W 030°26'3 7.4
2018-May-18 18:00N 39°06' W 030°23'2 4.9
2018-May-18 17:30N 39°07' W 030°26'2 4.5
2018-May-18 17:00N 39°07' W 030°29'4 4.7
2018-May-18 16:14N 39°08' W 030°34'3 4.8
2018-May-18 15:37N 39°09' W 030°37'1 4.5
2018-May-18 15:30N 39°09' W 030°38'19 4.2
2018-May-18 10:59N 39°15' W 031°02'2 4.1
2018-May-18 10:30N 39°15' W 031°04'10 3.9
2018-May-18 07:49N 39°20' W 031°16'1 2.9
2018-May-18 07:31N 39°20' W 031°17'2 3.1
2018-May-18 07:00N 39°20' W 031°19'1 2.6
2018-May-18 06:30N 39°21' W 031°19'1 1.9
2018-May-18 05:52N 39°22' W 031°19'1 1.7
2018-May-18 05:28N 39°23' W 031°19'1 1.7
2018-May-18 05:00N 39°24' W 031°19'0 0.4
2018-May-18 03:57N 39°23' W 031°19'3 5.2
2018-May-18 03:27N 39°26' W 031°19'3 7.4
2018-May-18 03:00N 39°29' W 031°19'1 0.6
2018-May-18 02:12N 39°29' W 031°19'1 7.6
2018-May-18 02:00N 39°27' W 031°19'4 7.4
2018-May-18 01:30N 39°23' W 031°19'4 7.0
2018-May-18 00:59N 39°20' W 031°18'4 6.9
2018-May-18 00:25N 39°16' W 031°16'2 5.2
2018-May-18 00:00N 39°17' W 031°19'3 6.9
2018-May-17 23:30N 39°21' W 031°19'4 7.4
2018-May-17 23:00N 39°24' W 031°20'4 7.0
2018-May-17 22:30N 39°28' W 031°20'6 6.4
2018-May-17 21:38N 39°33' W 031°19'1 6.7
2018-May-17 21:30N 39°34' W 031°19'3 6.6
2018-May-17 21:00N 39°36' W 031°15'4 6.7
2018-May-17 20:25N 39°38' W 031°11'3 6.1
2018-May-17 20:00N 39°41' W 031°11'3 3.1
2018-May-17 19:11N 39°40' W 031°08'2 7.1
2018-May-17 18:57N 39°42' W 031°09'2 1.2
2018-May-17 17:23N 39°40' W 031°08'3 7.0
2018-May-17 17:00N 39°43' W 031°09'1 0.8
2018-May-17 15:17N 39°41' W 031°09'2 7.5
2018-May-17 15:00N 39°43' W 031°09'3 2.2
2018-May-17 13:30N 39°40' W 031°08'3 6.9
2018-May-17 13:00N 39°43' W 031°09'4 4.1
2018-May-17 11:55N 39°41' W 031°04'3 6.5
2018-May-17 11:26N 39°40' W 031°08'2 3.0
2018-May-17 10:40N 39°40' W 031°05'1 7.2
2018-May-17 10:30N 39°41' W 031°04'4 2.5
2018-May-17 08:50N 39°40' W 031°10'2 5.3
2018-May-17 08:30N 39°41' W 031°11'5 3.0
2018-May-17 06:57N 39°45' W 031°08'8 6.6
2018-May-17 05:49N 39°38' W 031°10'5 7.1
2018-May-17 05:05N 39°34' W 031°05'0 5.7
2018-May-17 05:00N 39°34' W 031°05'2 3.5
2018-May-17 04:20N 39°32' W 031°06'2 2.0
2018-May-17 03:13N 39°33' W 031°09'2 5.8
2018-May-17 02:56N 39°32' W 031°08'1 1.2
2018-May-17 02:05N 39°31' W 031°07'1 8.3
2018-May-17 02:00N 39°32' W 031°08'1 2.0
2018-May-17 01:29N 39°32' W 031°09'1 0.7
2018-May-17 00:04N 39°33' W 031°09'1 8.4
2018-May-17 00:00N 39°33' W 031°10'5 5.7
2018-May-16 23:05N 39°29' W 031°07'1 6.1
2018-May-16 22:54N 39°30' W 031°07'4 6.9
2018-May-16 22:18N 39°33' W 031°11'1 1.6
2018-May-16 21:59N 39°33' W 031°11'1 1.6
2018-May-16 21:25N 39°33' W 031°12'1 2.2
2018-May-16 20:59N 39°33' W 031°13'1 0.6
2018-May-16 20:08N 39°32' W 031°14'1 3.1
2018-May-16 19:42N 39°33' W 031°12'1 6.2
2018-May-16 19:28N 39°32' W 031°14'2 1.6
2018-May-16 18:21N 39°34' W 031°13'3 7.1
2018-May-16 18:00N 39°32' W 031°11'1 2.1
2018-May-16 17:23N 39°33' W 031°12'1 3.1
2018-May-16 17:00N 39°32' W 031°11'1 1.9
2018-May-16 16:21N 39°33' W 031°12'3 5.1
2018-May-16 15:51N 39°31' W 031°10'2 0.7
2018-May-16 13:37N 39°32' W 031°11'1 2.1
2018-May-16 13:06N 39°31' W 031°10'3 5.4
2018-May-16 12:30N 39°29' W 031°08'3 5.9
2018-May-16 11:57N 39°32' W 031°10'3 2.4
2018-May-16 10:47N 39°29' W 031°08'3 7.0
2018-May-16 10:24N 39°32' W 031°09'3 3.0
2018-May-16 09:21N 39°29' W 031°07'5 5.9
2018-May-16 08:26N 39°33' W 031°12'2 3.4
2018-May-16 07:53N 39°33' W 031°09'1 1.2
2018-May-16 07:21N 39°33' W 031°09'2 6.6
2018-May-16 06:59N 39°33' W 031°12'2 3.0
2018-May-16 06:27N 39°33' W 031°10'1 1.8
2018-May-16 05:59N 39°34' W 031°09'3 5.5
2018-May-16 05:30N 39°35' W 031°12'1 1.2
2018-May-16 05:00N 39°35' W 031°13'1 2.4
2018-May-16 04:30N 39°35' W 031°11'2 4.8
2018-May-16 04:00N 39°34' W 031°14'3 5.4
2018-May-16 03:26N 39°35' W 031°10'2 4.8
2018-May-16 02:55N 39°36' W 031°13'2 5.1
2018-May-16 02:30N 39°35' W 031°16'4 7.0
2018-May-16 02:00N 39°36' W 031°11'4 7.0
2018-May-16 01:26N 39°34' W 031°07'3 2.4
2018-May-16 00:20N 39°31' W 031°06'2 7.2
2018-May-16 00:00N 39°34' W 031°07'4 7.4
2018-May-15 23:30N 39°36' W 031°10'3 6.6
2018-May-15 23:01N 39°36' W 031°14'4 7.4
2018-May-15 22:30N 39°34' W 031°18'2 1.9
2018-May-15 21:42N 39°32' W 031°17'2 5.9
2018-May-15 21:21N 39°34' W 031°15'2 2.1
2018-May-15 20:31N 39°33' W 031°17'0 7.2
2018-May-15 20:30N 39°33' W 031°17'2 3.2
2018-May-15 19:58N 39°33' W 031°14'1 0.4
2018-May-15 17:05N 39°32' W 031°14'1 6.9
2018-May-15 17:00N 39°33' W 031°13'3 6.4
2018-May-15 16:29N 39°34' W 031°09'2 4.6
2018-May-15 16:00N 39°34' W 031°12'9 6.7
2018-May-15 14:40N 39°26' W 031°17'2 7.3
2018-May-15 14:24N 39°24' W 031°16'1 3.4
2018-May-15 14:00N 39°25' W 031°17'2 3.9
2018-May-15 13:31N 39°23' W 031°16'1 1.3
2018-May-15 13:01N 39°24' W 031°17'2 2.3
2018-May-15 12:11N 39°22' W 031°16'1 6.8
2018-May-15 12:00N 39°23' W 031°17'0 0.5
2018-May-15 11:30N 39°23' W 031°17'3 1.6
2018-May-15 09:41N 39°26' W 031°17'1 7.8
2018-May-15 09:30N 39°25' W 031°17'5 6.1
2018-May-15 08:43N 39°20' W 031°16'1 4.3
2018-May-15 08:23N 39°21' W 031°17'2 6.2
2018-May-15 08:00N 39°23' W 031°18'3 5.1
2018-May-15 07:30N 39°26' W 031°18'7 6.8
2018-May-15 06:25N 39°33' W 031°18'3 6.7
2018-May-15 05:55N 39°34' W 031°14'3 7.1
2018-May-15 05:30N 39°35' W 031°10'2 4.3
2018-May-15 05:00N 39°34' W 031°13'4 7.2
2018-May-15 04:30N 39°33' W 031°17'6 7.0
2018-May-15 03:38N 39°27' W 031°18'1 7.3
2018-May-15 03:30N 39°26' W 031°18'4 7.3
2018-May-15 03:00N 39°23' W 031°18'3 6.4
2018-May-15 02:30N 39°20' W 031°16'4 7.1
2018-May-15 02:00N 39°23' W 031°18'10 6.2
2018-May-15 00:24N 39°33' W 031°17'3 6.7
2018-May-14 23:57N 39°34' W 031°13'3 6.8
2018-May-14 23:30N 39°34' W 031°09'1 2.1
2018-May-14 23:00N 39°34' W 031°08'4 7.7
2018-May-14 22:30N 39°33' W 031°13'8 7.0
2018-May-14 21:22N 39°26' W 031°17'3 7.3
2018-May-14 20:59N 39°23' W 031°17'2 2.4
2018-May-14 20:06N 39°21' W 031°16'1 7.3
2018-May-14 20:00N 39°22' W 031°16'3 7.0
2018-May-14 19:30N 39°25' W 031°17'8 6.9
2018-May-14 18:25N 39°33' W 031°14'2 3.7
2018-May-14 17:54N 39°34' W 031°12'9 6.6
2018-May-14 16:36N 39°26' W 031°17'1 7.7
2018-May-14 16:30N 39°26' W 031°18'4 7.5
2018-May-14 16:00N 39°22' W 031°17'1 1.7
2018-May-14 15:30N 39°21' W 031°16'3 6.8
2018-May-14 15:00N 39°24' W 031°18'9 6.8
2018-May-14 13:39N 39°33' W 031°15'1 7.0
2018-May-14 13:30N 39°34' W 031°14'3 6.4
2018-May-14 12:59N 39°34' W 031°09'3 7.2
2018-May-14 12:30N 39°34' W 031°05'37 7.1
2018-May-14 07:19N 39°21' W 030°20'5 8.0
2018-May-14 06:41N 39°18' W 030°15'1 7.9
2018-May-14 06:29N 39°17' W 030°13'4 8.0
2018-May-14 06:00N 39°16' W 030°08'4 8.1
2018-May-14 05:30N 39°14' W 030°03'4 7.8
2018-May-14 05:00N 39°13' W 029°59'4 7.9
2018-May-14 04:30N 39°11' W 029°55'4 7.5
2018-May-14 04:00N 39°10' W 029°50'4 7.4
2018-May-14 03:30N 39°07' W 029°47'4 7.3
2018-May-14 03:00N 39°04' W 029°44'4 7.1
2018-May-14 02:30N 39°01' W 029°43'3 6.5
2018-May-14 02:00N 38°59' W 029°46'3 6.2
2018-May-14 01:30N 38°56' W 029°48'3 7.0
2018-May-14 01:00N 38°53' W 029°49'4 7.2
2018-May-14 00:31N 38°49' W 029°49'3 5.9
2018-May-14 00:00N 38°47' W 029°51'4 7.1
2018-May-13 23:30N 38°50' W 029°51'3 6.9
2018-May-13 23:00N 38°54' W 029°50'3 7.0
2018-May-13 22:31N 38°57' W 029°50'3 6.6
2018-May-13 22:01N 38°60' W 029°47'3 6.7
2018-May-13 21:30N 39°02' W 029°44'3 5.7
2018-May-13 21:00N 39°04' W 029°42'1 2.6
2018-May-13 20:30N 39°06' W 029°43'2 3.7
2018-May-13 20:01N 39°04' W 029°45'4 7.4
2018-May-13 19:30N 39°01' W 029°48'4 7.3
2018-May-13 19:00N 38°59' W 029°51'4 7.3
2018-May-13 18:30N 38°55' W 029°52'4 7.3
2018-May-13 18:00N 38°52' W 029°53'4 7.2
2018-May-13 17:30N 38°48' W 029°53'2 4.0
2018-May-13 17:00N 38°48' W 029°56'4 7.1
2018-May-13 16:30N 38°52' W 029°55'4 7.1
2018-May-13 16:00N 38°55' W 029°54'3 6.7
2018-May-13 15:30N 38°59' W 029°53'3 7.0
2018-May-13 15:00N 39°01' W 029°50'4 7.1
2018-May-13 14:30N 39°04' W 029°47'2 4.4
2018-May-13 14:00N 39°06' W 029°48'3 7.0
2018-May-13 13:30N 39°03' W 029°50'3 6.8
2018-May-13 13:00N 39°01' W 029°53'3 6.9
2018-May-13 12:30N 38°58' W 029°55'4 7.2
2018-May-13 12:00N 38°55' W 029°56'4 7.0
2018-May-13 11:31N 38°51' W 029°58'2 3.2
2018-May-13 11:00N 38°51' W 029°60'4 7.0
2018-May-13 10:30N 38°54' W 029°58'4 7.1
2018-May-13 10:00N 38°57' W 029°57'4 7.1
2018-May-13 09:30N 39°00' W 029°55'4 7.2
2018-May-13 09:00N 39°03' W 029°52'4 7.3
2018-May-13 08:30N 39°07' W 029°50'2 3.7
2018-May-13 08:01N 39°08' W 029°52'2 4.3
2018-May-13 07:30N 39°09' W 029°54'3 6.6
2018-May-13 07:00N 39°06' W 029°56'4 7.6
2018-May-13 06:31N 39°02' W 029°58'4 7.4
2018-May-13 06:00N 38°59' W 030°00'4 7.2
2018-May-13 05:30N 38°56' W 030°02'4 7.3
2018-May-13 05:01N 38°52' W 030°04'2 4.2
2018-May-13 04:30N 38°53' W 030°01'4 7.5
2018-May-13 04:00N 38°57' W 029°60'4 7.2
2018-May-13 03:30N 38°60' W 029°58'3 6.9
2018-May-13 03:01N 39°03' W 029°56'3 6.9
2018-May-13 02:30N 39°06' W 029°54'2 4.8
2018-May-13 02:00N 39°08' W 029°52'4 7.4
2018-May-13 01:30N 39°04' W 029°54'4 7.6
2018-May-13 01:00N 39°01' W 029°56'4 7.5
2018-May-13 00:30N 38°57' W 029°58'5 7.6
2018-May-12 23:54N 38°53' W 030°00'3 7.7
2018-May-12 23:30N 38°50' W 030°01'4 7.4
2018-May-12 23:00N 38°47' W 030°02'4 7.1
2018-May-12 22:30N 38°44' W 030°04'4 7.3
2018-May-12 22:00N 38°40' W 030°06'1 2.2
2018-May-12 21:30N 38°39' W 030°06'3 5.2
2018-May-12 21:00N 38°41' W 030°08'1 2.4
2018-May-12 20:31N 38°40' W 030°07'4 7.0
2018-May-12 20:00N 38°39' W 030°03'1 2.8
2018-May-12 19:30N 38°38' W 030°02'2 4.9
2018-May-12 19:01N 38°38' W 030°05'3 6.9
2018-May-12 18:30N 38°40' W 030°09'2 4.6
2018-May-12 18:00N 38°39' W 030°12'4 7.2
2018-May-12 17:30N 38°38' W 030°08'4 7.1
2018-May-12 17:00N 38°36' W 030°03'4 7.3
2018-May-12 16:30N 38°35' W 029°59'  

Dump ship's entire track history